sensor_id;sensor_type;location;lat;lon;timestamp;pressure;altitude;pressure_sealevel;temperature;humidity
9249;BME280;4660;41.768;26.198;2023-06-04T00:02:04;100950.56;;;19.19;100.00
9249;BME280;4660;41.768;26.198;2023-06-04T00:04:30;100954.88;;;19.13;100.00
9249;BME280;4660;41.768;26.198;2023-06-04T00:06:56;100947.81;;;19.19;100.00
9249;BME280;4660;41.768;26.198;2023-06-04T00:09:21;100955.13;;;19.33;100.00
9249;BME280;4660;41.768;26.198;2023-06-04T00:11:47;100945.50;;;19.16;100.00
9249;BME280;4660;41.768;26.198;2023-06-04T00:14:13;100957.47;;;19.36;100.00
9249;BME280;4660;41.768;26.198;2023-06-04T00:16:40;100965.59;;;19.30;100.00
9249;BME280;4660;41.768;26.198;2023-06-04T00:19:06;100953.50;;;19.03;100.00
9249;BME280;4660;41.768;26.198;2023-06-04T00:21:31;100955.31;;;18.95;100.00
9249;BME280;4660;41.768;26.198;2023-06-04T00:23:58;100955.31;;;18.81;100.00
9249;BME280;4660;41.768;26.198;2023-06-04T00:26:24;100962.09;;;18.70;100.00
9249;BME280;4660;41.768;26.198;2023-06-04T00:28:50;100961.34;;;18.76;100.00
9249;BME280;4660;41.768;26.198;2023-06-04T00:31:15;100961.22;;;18.84;100.00
9249;BME280;4660;41.768;26.198;2023-06-04T00:33:41;100962.63;;;19.10;100.00
9249;BME280;4660;41.768;26.198;2023-06-04T00:36:07;100961.41;;;18.97;100.00
9249;BME280;4660;41.768;26.198;2023-06-04T00:38:33;100954.91;;;18.98;100.00
9249;BME280;4660;41.768;26.198;2023-06-04T00:40:58;100962.34;;;19.05;100.00
9249;BME280;4660;41.768;26.198;2023-06-04T00:43:24;100968.13;;;18.80;100.00
9249;BME280;4660;41.768;26.198;2023-06-04T00:45:53;100972.41;;;19.04;100.00
9249;BME280;4660;41.768;26.198;2023-06-04T00:48:19;100978.34;;;19.08;100.00
9249;BME280;4660;41.768;26.198;2023-06-04T00:50:45;100971.66;;;18.95;100.00
9249;BME280;4660;41.768;26.198;2023-06-04T00:53:12;100968.63;;;19.05;100.00
9249;BME280;4660;41.768;26.198;2023-06-04T00:55:37;100970.03;;;19.16;100.00
9249;BME280;4660;41.768;26.198;2023-06-04T00:58:03;100978.19;;;19.31;100.00
9249;BME280;4660;41.768;26.198;2023-06-04T01:00:32;100971.84;;;19.09;100.00
9249;BME280;4660;41.768;26.198;2023-06-04T01:02:58;100978.03;;;19.17;100.00
9249;BME280;4660;41.768;26.198;2023-06-04T01:05:41;100980.66;;;19.11;100.00
9249;BME280;4660;41.768;26.198;2023-06-04T01:08:09;100976.63;;;18.92;100.00
9249;BME280;4660;41.768;26.198;2023-06-04T01:10:35;100987.38;;;19.08;100.00
9249;BME280;4660;41.768;26.198;2023-06-04T01:13:01;100975.88;;;19.13;100.00
9249;BME280;4660;41.768;26.198;2023-06-04T01:15:27;100979.34;;;19.07;100.00
9249;BME280;4660;41.768;26.198;2023-06-04T01:17:59;100982.44;;;19.18;100.00
9249;BME280;4660;41.768;26.198;2023-06-04T01:20:39;100985.66;;;19.07;100.00
9249;BME280;4660;41.768;26.198;2023-06-04T01:23:15;100982.56;;;18.95;100.00
9249;BME280;4660;41.768;26.198;2023-06-04T01:25:44;100988.56;;;19.06;100.00
9249;BME280;4660;41.768;26.198;2023-06-04T01:28:15;100985.09;;;19.12;100.00
9249;BME280;4660;41.768;26.198;2023-06-04T01:30:45;100984.72;;;19.15;100.00
9249;BME280;4660;41.768;26.198;2023-06-04T01:33:14;100978.50;;;19.06;100.00
9249;BME280;4660;41.768;26.198;2023-06-04T01:35:40;100990.44;;;19.05;100.00
9249;BME280;4660;41.768;26.198;2023-06-04T01:38:06;100990.16;;;19.00;100.00
9249;BME280;4660;41.768;26.198;2023-06-04T01:40:31;100982.38;;;18.97;100.00
9249;BME280;4660;41.768;26.198;2023-06-04T01:42:57;100980.59;;;19.04;100.00
9249;BME280;4660;41.768;26.198;2023-06-04T01:45:23;100985.91;;;19.27;100.00
9249;BME280;4660;41.768;26.198;2023-06-04T01:47:49;100982.28;;;19.41;100.00
9249;BME280;4660;41.768;26.198;2023-06-04T01:50:15;100992.44;;;19.47;100.00
9249;BME280;4660;41.768;26.198;2023-06-04T01:52:41;100993.69;;;19.45;100.00
9249;BME280;4660;41.768;26.198;2023-06-04T01:55:08;100982.69;;;19.38;100.00
9249;BME280;4660;41.768;26.198;2023-06-04T01:57:35;100991.50;;;19.40;100.00
9249;BME280;4660;41.768;26.198;2023-06-04T02:00:01;100986.81;;;19.34;100.00
9249;BME280;4660;41.768;26.198;2023-06-04T02:02:27;100988.97;;;19.39;100.00
9249;BME280;4660;41.768;26.198;2023-06-04T02:04:53;100989.34;;;19.36;100.00
9249;BME280;4660;41.768;26.198;2023-06-04T02:07:19;100996.84;;;18.97;100.00
9249;BME280;4660;41.768;26.198;2023-06-04T02:09:48;100992.97;;;19.07;100.00
9249;BME280;4660;41.768;26.198;2023-06-04T02:12:14;101005.13;;;19.04;100.00
9249;BME280;4660;41.768;26.198;2023-06-04T02:14:39;100983.88;;;18.85;100.00
9249;BME280;4660;41.768;26.198;2023-06-04T02:17:07;100975.16;;;18.75;100.00
9249;BME280;4660;41.768;26.198;2023-06-04T02:19:41;100999.69;;;18.89;100.00
9249;BME280;4660;41.768;26.198;2023-06-04T02:22:13;101005.34;;;18.88;100.00
9249;BME280;4660;41.768;26.198;2023-06-04T02:24:40;101012.66;;;18.87;100.00
9249;BME280;4660;41.768;26.198;2023-06-04T02:27:09;101013.72;;;18.86;100.00
9249;BME280;4660;41.768;26.198;2023-06-04T02:29:36;101010.41;;;18.91;100.00
9249;BME280;4660;41.768;26.198;2023-06-04T02:32:03;101007.31;;;18.94;100.00
9249;BME280;4660;41.768;26.198;2023-06-04T02:34:28;101019.59;;;19.05;100.00
9249;BME280;4660;41.768;26.198;2023-06-04T02:36:54;101031.34;;;19.05;100.00
9249;BME280;4660;41.768;26.198;2023-06-04T02:39:20;101020.34;;;18.98;100.00
9249;BME280;4660;41.768;26.198;2023-06-04T02:41:45;101027.44;;;19.08;100.00
9249;BME280;4660;41.768;26.198;2023-06-04T02:44:11;101014.81;;;18.92;100.00
9249;BME280;4660;41.768;26.198;2023-06-04T02:46:37;101038.78;;;19.11;100.00
9249;BME280;4660;41.768;26.198;2023-06-04T02:49:03;101033.22;;;19.19;100.00
9249;BME280;4660;41.768;26.198;2023-06-04T02:51:29;101039.44;;;19.13;100.00
9249;BME280;4660;41.768;26.198;2023-06-04T02:53:55;101042.56;;;19.10;100.00
9249;BME280;4660;41.768;26.198;2023-06-04T02:56:21;101037.84;;;18.89;100.00
9249;BME280;4660;41.768;26.198;2023-06-04T02:58:51;101043.31;;;18.89;100.00
9249;BME280;4660;41.768;26.198;2023-06-04T03:01:19;101031.16;;;18.77;100.00
9249;BME280;4660;41.768;26.198;2023-06-04T03:03:46;101045.75;;;18.84;100.00
9249;BME280;4660;41.768;26.198;2023-06-04T03:06:12;101053.66;;;18.79;100.00
9249;BME280;4660;41.768;26.198;2023-06-04T03:08:40;101052.13;;;18.91;100.00
9249;BME280;4660;41.768;26.198;2023-06-04T03:11:06;101042.16;;;18.69;100.00
9249;BME280;4660;41.768;26.198;2023-06-04T03:13:32;101057.22;;;18.42;100.00
9249;BME280;4660;41.768;26.198;2023-06-04T03:15:57;101042.78;;;18.56;100.00
9249;BME280;4660;41.768;26.198;2023-06-04T03:18:26;101056.13;;;18.51;100.00
9249;BME280;4660;41.768;26.198;2023-06-04T03:20:53;101052.25;;;18.46;100.00
9249;BME280;4660;41.768;26.198;2023-06-04T03:23:19;101048.50;;;18.47;100.00
9249;BME280;4660;41.768;26.198;2023-06-04T03:25:45;101030.38;;;18.54;100.00
9249;BME280;4660;41.768;26.198;2023-06-04T03:28:10;101045.94;;;18.83;100.00
9249;BME280;4660;41.768;26.198;2023-06-04T03:30:36;101037.66;;;18.91;100.00
9249;BME280;4660;41.768;26.198;2023-06-04T03:33:02;101050.44;;;18.90;100.00
9249;BME280;4660;41.768;26.198;2023-06-04T03:35:28;101042.47;;;19.04;100.00
9249;BME280;4660;41.768;26.198;2023-06-04T03:37:53;101052.63;;;19.10;100.00
9249;BME280;4660;41.768;26.198;2023-06-04T03:40:19;101053.75;;;19.15;100.00
9249;BME280;4660;41.768;26.198;2023-06-04T03:42:45;101057.69;;;19.13;100.00
9249;BME280;4660;41.768;26.198;2023-06-04T03:45:10;101054.97;;;19.13;100.00
9249;BME280;4660;41.768;26.198;2023-06-04T03:47:37;101057.56;;;19.21;100.00
9249;BME280;4660;41.768;26.198;2023-06-04T03:50:03;101063.03;;;19.21;100.00
9249;BME280;4660;41.768;26.198;2023-06-04T03:52:29;101070.38;;;19.06;100.00
9249;BME280;4660;41.768;26.198;2023-06-04T03:54:54;101074.91;;;18.98;100.00
9249;BME280;4660;41.768;26.198;2023-06-04T03:57:20;101066.81;;;18.90;100.00
9249;BME280;4660;41.768;26.198;2023-06-04T03:59:46;101077.59;;;18.69;100.00
9249;BME280;4660;41.768;26.198;2023-06-04T04:02:11;101076.47;;;18.78;100.00
9249;BME280;4660;41.768;26.198;2023-06-04T04:04:36;101083.84;;;18.55;100.00
9249;BME280;4660;41.768;26.198;2023-06-04T04:07:02;101071.41;;;18.37;100.00
9249;BME280;4660;41.768;26.198;2023-06-04T04:09:27;101080.31;;;18.69;100.00
9249;BME280;4660;41.768;26.198;2023-06-04T04:11:53;101091.25;;;18.84;100.00
9249;BME280;4660;41.768;26.198;2023-06-04T04:14:19;101098.00;;;18.73;100.00
9249;BME280;4660;41.768;26.198;2023-06-04T04:16:44;101087.75;;;18.75;100.00
9249;BME280;4660;41.768;26.198;2023-06-04T04:19:10;101094.59;;;18.71;100.00
9249;BME280;4660;41.768;26.198;2023-06-04T04:21:37;101098.41;;;18.62;100.00
9249;BME280;4660;41.768;26.198;2023-06-04T04:24:03;101102.31;;;18.67;100.00
9249;BME280;4660;41.768;26.198;2023-06-04T04:26:29;101099.22;;;18.48;100.00
9249;BME280;4660;41.768;26.198;2023-06-04T04:28:55;101106.00;;;18.52;100.00
9249;BME280;4660;41.768;26.198;2023-06-04T04:31:29;101099.78;;;18.66;100.00
9249;BME280;4660;41.768;26.198;2023-06-04T04:33:56;101100.25;;;18.47;100.00
9249;BME280;4660;41.768;26.198;2023-06-04T04:36:21;101106.19;;;18.50;100.00
9249;BME280;4660;41.768;26.198;2023-06-04T04:38:47;101098.41;;;18.62;100.00
9249;BME280;4660;41.768;26.198;2023-06-04T04:41:20;101114.41;;;18.65;100.00
9249;BME280;4660;41.768;26.198;2023-06-04T04:43:48;101098.31;;;18.55;100.00
9249;BME280;4660;41.768;26.198;2023-06-04T04:46:13;101096.91;;;18.59;100.00
9249;BME280;4660;41.768;26.198;2023-06-04T04:48:39;101107.22;;;18.72;100.00
9249;BME280;4660;41.768;26.198;2023-06-04T04:51:05;101105.06;;;18.82;100.00
9249;BME280;4660;41.768;26.198;2023-06-04T04:53:31;101092.69;;;18.94;100.00
9249;BME280;4660;41.768;26.198;2023-06-04T04:55:57;101105.75;;;19.14;100.00
9249;BME280;4660;41.768;26.198;2023-06-04T04:58:23;101110.94;;;19.38;100.00
9249;BME280;4660;41.768;26.198;2023-06-04T05:00:48;101102.00;;;19.59;100.00
9249;BME280;4660;41.768;26.198;2023-06-04T05:03:14;101114.97;;;19.72;100.00
9249;BME280;4660;41.768;26.198;2023-06-04T05:05:40;101112.50;;;19.77;100.00
9249;BME280;4660;41.768;26.198;2023-06-04T05:08:05;101115.09;;;19.85;100.00
9249;BME280;4660;41.768;26.198;2023-06-04T05:10:31;101102.50;;;19.84;100.00
9249;BME280;4660;41.768;26.198;2023-06-04T05:12:58;101111.63;;;20.13;100.00
9249;BME280;4660;41.768;26.198;2023-06-04T05:15:25;101103.63;;;20.11;100.00
9249;BME280;4660;41.768;26.198;2023-06-04T05:17:52;101113.72;;;20.11;100.00
9249;BME280;4660;41.768;26.198;2023-06-04T05:20:19;101109.44;;;20.23;100.00
9249;BME280;4660;41.768;26.198;2023-06-04T05:22:46;101115.53;;;20.25;100.00
9249;BME280;4660;41.768;26.198;2023-06-04T05:25:11;101121.25;;;20.45;100.00
9249;BME280;4660;41.768;26.198;2023-06-04T05:27:39;101113.16;;;20.37;100.00
9249;BME280;4660;41.768;26.198;2023-06-04T05:30:06;101130.28;;;20.45;100.00
9249;BME280;4660;41.768;26.198;2023-06-04T05:32:32;101130.78;;;20.55;100.00
9249;BME280;4660;41.768;26.198;2023-06-04T05:34:58;101129.72;;;20.56;100.00
9249;BME280;4660;41.768;26.198;2023-06-04T05:37:25;101144.63;;;20.75;100.00
9249;BME280;4660;41.768;26.198;2023-06-04T05:39:55;101137.28;;;20.76;100.00
9249;BME280;4660;41.768;26.198;2023-06-04T05:42:21;101124.19;;;20.71;100.00
9249;BME280;4660;41.768;26.198;2023-06-04T05:44:47;101148.06;;;20.84;100.00
9249;BME280;4660;41.768;26.198;2023-06-04T05:47:13;101145.59;;;20.89;100.00
9249;BME280;4660;41.768;26.198;2023-06-04T05:49:38;101145.19;;;20.92;100.00
9249;BME280;4660;41.768;26.198;2023-06-04T05:52:04;101153.47;;;20.77;100.00
9249;BME280;4660;41.768;26.198;2023-06-04T05:54:30;101149.69;;;21.06;100.00
9249;BME280;4660;41.768;26.198;2023-06-04T05:56:56;101147.19;;;21.33;100.00
9249;BME280;4660;41.768;26.198;2023-06-04T05:59:22;101151.47;;;21.49;100.00
9249;BME280;4660;41.768;26.198;2023-06-04T06:01:47;101162.50;;;21.62;100.00
9249;BME280;4660;41.768;26.198;2023-06-04T06:04:13;101165.13;;;21.42;100.00
9249;BME280;4660;41.768;26.198;2023-06-04T06:06:39;101163.72;;;21.53;100.00
9249;BME280;4660;41.768;26.198;2023-06-04T06:09:06;101164.69;;;21.38;100.00
9249;BME280;4660;41.768;26.198;2023-06-04T06:11:31;101176.78;;;21.51;100.00
9249;BME280;4660;41.768;26.198;2023-06-04T06:13:57;101177.94;;;21.35;100.00
9249;BME280;4660;41.768;26.198;2023-06-04T06:16:22;101177.38;;;21.46;100.00
9249;BME280;4660;41.768;26.198;2023-06-04T06:18:48;101182.50;;;21.28;100.00
9249;BME280;4660;41.768;26.198;2023-06-04T06:21:13;101168.66;;;21.36;100.00
9249;BME280;4660;41.768;26.198;2023-06-04T06:23:39;101174.13;;;21.29;100.00
9249;BME280;4660;41.768;26.198;2023-06-04T06:26:04;101183.19;;;21.30;100.00
9249;BME280;4660;41.768;26.198;2023-06-04T06:28:33;101183.53;;;21.27;100.00
9249;BME280;4660;41.768;26.198;2023-06-04T06:31:01;101183.28;;;21.22;100.00
9249;BME280;4660;41.768;26.198;2023-06-04T06:33:27;101193.28;;;21.29;100.00
9249;BME280;4660;41.768;26.198;2023-06-04T06:35:52;101182.78;;;21.11;100.00
9249;BME280;4660;41.768;26.198;2023-06-04T06:38:18;101184.56;;;21.26;100.00
9249;BME280;4660;41.768;26.198;2023-06-04T06:40:43;101193.75;;;21.39;100.00
9249;BME280;4660;41.768;26.198;2023-06-04T06:43:09;101191.88;;;21.40;100.00
9249;BME280;4660;41.768;26.198;2023-06-04T06:45:36;101194.97;;;21.30;100.00
9249;BME280;4660;41.768;26.198;2023-06-04T06:48:01;101158.06;;;20.98;100.00
9249;BME280;4660;41.768;26.198;2023-06-04T06:50:27;101194.16;;;21.08;100.00
9249;BME280;4660;41.768;26.198;2023-06-04T06:52:52;101197.75;;;21.37;100.00
9249;BME280;4660;41.768;26.198;2023-06-04T06:55:18;101193.22;;;21.51;100.00
9249;BME280;4660;41.768;26.198;2023-06-04T06:57:44;101197.19;;;21.89;100.00
9249;BME280;4660;41.768;26.198;2023-06-04T07:00:10;101209.97;;;22.17;100.00
9249;BME280;4660;41.768;26.198;2023-06-04T07:02:36;101217.63;;;22.41;100.00
9249;BME280;4660;41.768;26.198;2023-06-04T07:05:02;101219.06;;;22.24;100.00
9249;BME280;4660;41.768;26.198;2023-06-04T07:07:28;101218.84;;;22.19;100.00
9249;BME280;4660;41.768;26.198;2023-06-04T07:09:54;101213.25;;;21.99;100.00
9249;BME280;4660;41.768;26.198;2023-06-04T07:12:20;101228.03;;;22.05;100.00
9249;BME280;4660;41.768;26.198;2023-06-04T07:14:46;101224.72;;;22.09;100.00
9249;BME280;4660;41.768;26.198;2023-06-04T07:17:12;101233.41;;;22.26;100.00
9249;BME280;4660;41.768;26.198;2023-06-04T07:19:37;101231.94;;;22.23;100.00
9249;BME280;4660;41.768;26.198;2023-06-04T07:22:03;101239.53;;;22.28;100.00
9249;BME280;4660;41.768;26.198;2023-06-04T07:24:28;101236.19;;;22.33;100.00
9249;BME280;4660;41.768;26.198;2023-06-04T07:26:54;101237.88;;;22.40;100.00
9249;BME280;4660;41.768;26.198;2023-06-04T07:29:20;101246.19;;;22.67;100.00
9249;BME280;4660;41.768;26.198;2023-06-04T07:31:45;101240.06;;;22.65;100.00
9249;BME280;4660;41.768;26.198;2023-06-04T07:34:11;101251.88;;;22.78;100.00
9249;BME280;4660;41.768;26.198;2023-06-04T07:36:36;101244.94;;;22.83;100.00
9249;BME280;4660;41.768;26.198;2023-06-04T07:39:02;101245.13;;;22.61;100.00
9249;BME280;4660;41.768;26.198;2023-06-04T07:41:30;101254.78;;;22.57;100.00
9249;BME280;4660;41.768;26.198;2023-06-04T07:43:55;101249.13;;;22.59;100.00
9249;BME280;4660;41.768;26.198;2023-06-04T07:46:21;101255.69;;;22.77;100.00
9249;BME280;4660;41.768;26.198;2023-06-04T07:48:46;101254.44;;;22.73;100.00
9249;BME280;4660;41.768;26.198;2023-06-04T07:51:12;101266.03;;;22.82;100.00
9249;BME280;4660;41.768;26.198;2023-06-04T07:53:38;101254.22;;;22.75;100.00
9249;BME280;4660;41.768;26.198;2023-06-04T07:56:04;101262.06;;;22.91;100.00
9249;BME280;4660;41.768;26.198;2023-06-04T07:58:29;101271.81;;;23.20;100.00
9249;BME280;4660;41.768;26.198;2023-06-04T08:00:55;101257.06;;;23.15;100.00
9249;BME280;4660;41.768;26.198;2023-06-04T08:03:21;101249.00;;;23.00;100.00
9249;BME280;4660;41.768;26.198;2023-06-04T08:05:47;101276.25;;;23.15;100.00
9249;BME280;4660;41.768;26.198;2023-06-04T08:08:12;101272.00;;;23.05;100.00
9249;BME280;4660;41.768;26.198;2023-06-04T08:10:39;101278.78;;;23.03;100.00
9249;BME280;4660;41.768;26.198;2023-06-04T08:13:04;101286.59;;;23.19;100.00
9249;BME280;4660;41.768;26.198;2023-06-04T08:15:30;101276.44;;;23.53;100.00
9249;BME280;4660;41.768;26.198;2023-06-04T08:17:56;101262.94;;;23.45;100.00
9249;BME280;4660;41.768;26.198;2023-06-04T08:20:23;101277.50;;;23.58;100.00
9249;BME280;4660;41.768;26.198;2023-06-04T08:22:48;101285.34;;;23.68;100.00
9249;BME280;4660;41.768;26.198;2023-06-04T08:25:14;101277.94;;;23.35;100.00
9249;BME280;4660;41.768;26.198;2023-06-04T08:27:41;101268.03;;;23.08;100.00
9249;BME280;4660;41.768;26.198;2023-06-04T08:30:07;101278.34;;;23.06;100.00
9249;BME280;4660;41.768;26.198;2023-06-04T08:32:33;101276.44;;;23.00;100.00
9249;BME280;4660;41.768;26.198;2023-06-04T08:34:59;101277.09;;;23.15;100.00
9249;BME280;4660;41.768;26.198;2023-06-04T08:37:25;101273.31;;;23.23;100.00
9249;BME280;4660;41.768;26.198;2023-06-04T08:39:51;101276.91;;;23.37;100.00
9249;BME280;4660;41.768;26.198;2023-06-04T08:42:29;101282.78;;;23.40;100.00
9249;BME280;4660;41.768;26.198;2023-06-04T08:44:56;101272.25;;;23.44;100.00
9249;BME280;4660;41.768;26.198;2023-06-04T08:47:24;101284.50;;;23.61;100.00
9249;BME280;4660;41.768;26.198;2023-06-04T08:49:51;101280.25;;;23.39;100.00
9249;BME280;4660;41.768;26.198;2023-06-04T08:52:18;101277.97;;;23.29;100.00
9249;BME280;4660;41.768;26.198;2023-06-04T08:54:50;101276.03;;;23.03;100.00
9249;BME280;4660;41.768;26.198;2023-06-04T08:57:18;101266.31;;;23.00;100.00
9249;BME280;4660;41.768;26.198;2023-06-04T08:59:46;101282.38;;;23.30;100.00
9249;BME280;4660;41.768;26.198;2023-06-04T09:02:12;101277.31;;;23.00;100.00
9249;BME280;4660;41.768;26.198;2023-06-04T09:04:39;101275.59;;;22.99;100.00
9249;BME280;4660;41.768;26.198;2023-06-04T09:07:06;101277.72;;;23.24;100.00
9249;BME280;4660;41.768;26.198;2023-06-04T09:09:40;101280.25;;;23.45;100.00
9249;BME280;4660;41.768;26.198;2023-06-04T09:12:12;101280.28;;;23.65;100.00
9249;BME280;4660;41.768;26.198;2023-06-04T09:14:41;101270.94;;;23.59;100.00
9249;BME280;4660;41.768;26.198;2023-06-04T09:17:06;101273.94;;;23.45;100.00
9249;BME280;4660;41.768;26.198;2023-06-04T09:19:32;101273.69;;;23.53;100.00
9249;BME280;4660;41.768;26.198;2023-06-04T09:21:59;101276.25;;;23.74;100.00
9249;BME280;4660;41.768;26.198;2023-06-04T09:24:41;101276.47;;;23.73;100.00
9249;BME280;4660;41.768;26.198;2023-06-04T09:27:14;101264.16;;;23.88;100.00
9249;BME280;4660;41.768;26.198;2023-06-04T09:30:06;101253.75;;;24.04;100.00
9249;BME280;4660;41.768;26.198;2023-06-04T09:32:33;101259.81;;;24.19;100.00
9249;BME280;4660;41.768;26.198;2023-06-04T09:35:10;101270.63;;;24.65;100.00
9249;BME280;4660;41.768;26.198;2023-06-04T09:37:37;101253.44;;;24.25;100.00
9249;BME280;4660;41.768;26.198;2023-06-04T09:40:03;101265.31;;;24.19;100.00
9249;BME280;4660;41.768;26.198;2023-06-04T09:42:30;101262.78;;;24.17;100.00
9249;BME280;4660;41.768;26.198;2023-06-04T09:45:06;101267.25;;;24.05;100.00
9249;BME280;4660;41.768;26.198;2023-06-04T09:47:42;101269.16;;;24.05;100.00
9249;BME280;4660;41.768;26.198;2023-06-04T09:50:10;101274.66;;;24.05;100.00
9249;BME280;4660;41.768;26.198;2023-06-04T09:52:35;101270.84;;;24.06;100.00
9249;BME280;4660;41.768;26.198;2023-06-04T09:55:03;101261.78;;;23.99;100.00
9249;BME280;4660;41.768;26.198;2023-06-04T09:57:29;101267.63;;;24.74;100.00
9249;BME280;4660;41.768;26.198;2023-06-04T09:59:56;101256.84;;;24.72;100.00
9249;BME280;4660;41.768;26.198;2023-06-04T10:02:22;101254.72;;;24.67;100.00
9249;BME280;4660;41.768;26.198;2023-06-04T10:04:55;101258.59;;;24.91;100.00
9249;BME280;4660;41.768;26.198;2023-06-04T10:07:24;101264.03;;;24.73;100.00
9249;BME280;4660;41.768;26.198;2023-06-04T10:09:52;101244.75;;;24.73;100.00
9249;BME280;4660;41.768;26.198;2023-06-04T10:12:29;101253.44;;;24.70;100.00
9249;BME280;4660;41.768;26.198;2023-06-04T10:15:08;101253.75;;;24.55;100.00
9249;BME280;4660;41.768;26.198;2023-06-04T10:17:35;101261.69;;;24.70;100.00
9249;BME280;4660;41.768;26.198;2023-06-04T10:20:03;101252.28;;;24.84;100.00
9249;BME280;4660;41.768;26.198;2023-06-04T10:22:38;101239.25;;;25.05;100.00
9249;BME280;4660;41.768;26.198;2023-06-04T10:25:04;101250.88;;;25.07;100.00
9249;BME280;4660;41.768;26.198;2023-06-04T10:27:34;101243.63;;;25.12;100.00
9249;BME280;4660;41.768;26.198;2023-06-04T10:30:04;101211.13;;;25.21;100.00
9249;BME280;4660;41.768;26.198;2023-06-04T10:32:30;101235.84;;;25.71;100.00
9249;BME280;4660;41.768;26.198;2023-06-04T10:34:56;101237.28;;;25.80;100.00
9249;BME280;4660;41.768;26.198;2023-06-04T10:37:26;101247.22;;;25.38;100.00
9249;BME280;4660;41.768;26.198;2023-06-04T10:39:56;101248.97;;;25.32;100.00
9249;BME280;4660;41.768;26.198;2023-06-04T10:42:23;101249.25;;;24.92;100.00
9249;BME280;4660;41.768;26.198;2023-06-04T10:44:50;101250.75;;;24.57;100.00
9249;BME280;4660;41.768;26.198;2023-06-04T10:47:21;101248.53;;;23.82;100.00
9249;BME280;4660;41.768;26.198;2023-06-04T10:49:47;101249.38;;;23.76;100.00
9249;BME280;4660;41.768;26.198;2023-06-04T10:52:13;101246.31;;;24.11;100.00
9249;BME280;4660;41.768;26.198;2023-06-04T10:54:38;101245.88;;;24.14;100.00
9249;BME280;4660;41.768;26.198;2023-06-04T10:57:12;101239.94;;;24.17;100.00
9249;BME280;4660;41.768;26.198;2023-06-04T10:59:38;101240.06;;;23.77;100.00
9249;BME280;4660;41.768;26.198;2023-06-04T11:02:09;101247.69;;;23.75;100.00
9249;BME280;4660;41.768;26.198;2023-06-04T11:04:36;101240.97;;;23.18;100.00
9249;BME280;4660;41.768;26.198;2023-06-04T11:07:08;101234.66;;;23.38;100.00
9249;BME280;4660;41.768;26.198;2023-06-04T11:09:35;101255.34;;;23.67;100.00
9249;BME280;4660;41.768;26.198;2023-06-04T11:12:02;101233.47;;;23.92;100.00
9249;BME280;4660;41.768;26.198;2023-06-04T11:14:29;101229.97;;;24.29;100.00
9249;BME280;4660;41.768;26.198;2023-06-04T11:16:55;101230.19;;;24.21;100.00
9249;BME280;4660;41.768;26.198;2023-06-04T11:19:20;101235.97;;;24.58;100.00
9249;BME280;4660;41.768;26.198;2023-06-04T11:21:46;101222.28;;;24.76;100.00
9249;BME280;4660;41.768;26.198;2023-06-04T11:24:12;101227.81;;;25.01;100.00
9249;BME280;4660;41.768;26.198;2023-06-04T11:26:38;101222.72;;;25.05;100.00
9249;BME280;4660;41.768;26.198;2023-06-04T11:29:09;101225.25;;;25.31;100.00
9249;BME280;4660;41.768;26.198;2023-06-04T11:31:44;101218.41;;;25.59;100.00
9249;BME280;4660;41.768;26.198;2023-06-04T11:34:10;101216.94;;;25.38;100.00
9249;BME280;4660;41.768;26.198;2023-06-04T11:36:39;101211.81;;;25.60;100.00
9249;BME280;4660;41.768;26.198;2023-06-04T11:39:05;101200.28;;;25.26;100.00
9249;BME280;4660;41.768;26.198;2023-06-04T11:41:36;101216.41;;;24.97;100.00
9249;BME280;4660;41.768;26.198;2023-06-04T11:44:05;101229.78;;;24.94;100.00
9249;BME280;4660;41.768;26.198;2023-06-04T11:46:35;101224.78;;;24.53;100.00
9249;BME280;4660;41.768;26.198;2023-06-04T11:49:04;101219.53;;;24.45;100.00
9249;BME280;4660;41.768;26.198;2023-06-04T11:51:30;101228.03;;;24.36;100.00
9249;BME280;4660;41.768;26.198;2023-06-04T11:53:56;101225.03;;;24.76;100.00
9249;BME280;4660;41.768;26.198;2023-06-04T11:56:24;101230.28;;;25.16;100.00
9249;BME280;4660;41.768;26.198;2023-06-04T11:58:51;101213.34;;;25.37;100.00
9249;BME280;4660;41.768;26.198;2023-06-04T12:01:17;101231.34;;;25.15;100.00
9249;BME280;4660;41.768;26.198;2023-06-04T12:03:43;101210.22;;;25.09;100.00
9249;BME280;4660;41.768;26.198;2023-06-04T12:06:16;101226.44;;;25.17;100.00
9249;BME280;4660;41.768;26.198;2023-06-04T12:11:29;101225.88;;;25.95;100.00
9249;BME280;4660;41.768;26.198;2023-06-04T12:13:58;101231.91;;;26.03;100.00
9249;BME280;4660;41.768;26.198;2023-06-04T12:16:24;101223.44;;;25.87;100.00
9249;BME280;4660;41.768;26.198;2023-06-04T12:18:51;101229.91;;;25.92;100.00
9249;BME280;4660;41.768;26.198;2023-06-04T12:21:25;101233.16;;;25.89;100.00
9249;BME280;4660;41.768;26.198;2023-06-04T12:24:05;101228.88;;;25.93;100.00
9249;BME280;4660;41.768;26.198;2023-06-04T12:26:34;101228.56;;;26.01;100.00
9249;BME280;4660;41.768;26.198;2023-06-04T12:29:15;101233.44;;;25.99;100.00
9249;BME280;4660;41.768;26.198;2023-06-04T12:31:43;101221.47;;;25.69;100.00
9249;BME280;4660;41.768;26.198;2023-06-04T12:34:09;101212.72;;;25.10;100.00
9249;BME280;4660;41.768;26.198;2023-06-04T12:36:35;101225.59;;;25.16;100.00
9249;BME280;4660;41.768;26.198;2023-06-04T12:39:03;101227.88;;;25.19;100.00
9249;BME280;4660;41.768;26.198;2023-06-04T12:41:29;101233.31;;;25.01;100.00
9249;BME280;4660;41.768;26.198;2023-06-04T12:43:55;101231.69;;;24.93;100.00
9249;BME280;4660;41.768;26.198;2023-06-04T12:46:22;101231.09;;;24.85;100.00
9249;BME280;4660;41.768;26.198;2023-06-04T12:48:49;101229.00;;;24.87;100.00
9249;BME280;4660;41.768;26.198;2023-06-04T12:51:15;101222.00;;;25.16;100.00
9249;BME280;4660;41.768;26.198;2023-06-04T12:53:41;101221.78;;;25.61;100.00